Terminal Aerodrome Forecast
Issued by NWS

Home | Current Version | Previous Version | Text Only | Print | Product List | Glossary Off
Versions: 1 2 3 4 5 6 7 8 9 10 11 12 13 14 15 16 17 18 19 20 21

000
FTUS42 KMHX 312013 AAA
TAFOAJ
TAF AMD
KOAJ 312013Z 3120/0118 14005KT P6SM VCSH BKN060 OVC070
     FM010200 17005KT P6SM BKN012
     FM010600 00000KT 4SM BR OVC007
      TEMPO 0108/0112 1SM BR OVC004
     FM011500 VRB03KT P6SM BKN025
      AMD LTD TO CLD VIS AND WIND=

USA.gov is the U.S. government's official web portal to all federal, state and local government web resources and services.